sensor_id;sensor_type;location;lat;lon;timestamp;P1;durP1;ratioP1;P2;durP2;ratioP2
7128;SDS011;3606;52.930;8.644;2022-10-30T00:00:14;12.43;;;7.13;;
7128;SDS011;3606;52.930;8.644;2022-10-30T00:02:39;12.70;;;7.77;;
7128;SDS011;3606;52.930;8.644;2022-10-30T00:05:05;17.47;;;8.03;;
7128;SDS011;3606;52.930;8.644;2022-10-30T00:07:32;16.37;;;7.40;;
7128;SDS011;3606;52.930;8.644;2022-10-30T00:09:58;16.20;;;7.67;;
7128;SDS011;3606;52.930;8.644;2022-10-30T00:12:23;14.87;;;7.57;;
7128;SDS011;3606;52.930;8.644;2022-10-30T00:14:49;11.03;;;6.50;;
7128;SDS011;3606;52.930;8.644;2022-10-30T00:17:14;11.13;;;7.03;;
7128;SDS011;3606;52.930;8.644;2022-10-30T00:19:40;15.30;;;7.90;;
7128;SDS011;3606;52.930;8.644;2022-10-30T00:22:05;15.70;;;7.17;;
7128;SDS011;3606;52.930;8.644;2022-10-30T00:24:31;17.10;;;7.20;;
7128;SDS011;3606;52.930;8.644;2022-10-30T00:26:56;14.83;;;7.57;;
7128;SDS011;3606;52.930;8.644;2022-10-30T00:29:22;13.80;;;6.80;;
7128;SDS011;3606;52.930;8.644;2022-10-30T00:31:49;16.97;;;6.20;;
7128;SDS011;3606;52.930;8.644;2022-10-30T00:34:15;9.37;;;6.63;;
7128;SDS011;3606;52.930;8.644;2022-10-30T00:36:40;15.20;;;6.30;;
7128;SDS011;3606;52.930;8.644;2022-10-30T00:39:06;12.50;;;6.80;;
7128;SDS011;3606;52.930;8.644;2022-10-30T00:41:31;16.10;;;7.37;;
7128;SDS011;3606;52.930;8.644;2022-10-30T00:43:57;12.80;;;6.83;;
7128;SDS011;3606;52.930;8.644;2022-10-30T00:46:30;12.83;;;6.27;;
7128;SDS011;3606;52.930;8.644;2022-10-30T00:49:00;8.53;;;5.67;;
7128;SDS011;3606;52.930;8.644;2022-10-30T00:51:47;11.00;;;6.30;;
7128;SDS011;3606;52.930;8.644;2022-10-30T00:54:14;10.03;;;6.47;;
7128;SDS011;3606;52.930;8.644;2022-10-30T00:56:42;15.13;;;6.83;;
7128;SDS011;3606;52.930;8.644;2022-10-30T00:59:09;11.00;;;6.90;;
7128;SDS011;3606;52.930;8.644;2022-10-30T01:01:37;11.47;;;6.60;;
7128;SDS011;3606;52.930;8.644;2022-10-30T01:04:06;10.30;;;6.00;;
7128;SDS011;3606;52.930;8.644;2022-10-30T01:06:33;9.47;;;6.10;;
7128;SDS011;3606;52.930;8.644;2022-10-30T01:09:02;11.70;;;6.67;;
7128;SDS011;3606;52.930;8.644;2022-10-30T01:11:28;21.50;;;6.33;;
7128;SDS011;3606;52.930;8.644;2022-10-30T01:13:55;17.30;;;7.07;;
7128;SDS011;3606;52.930;8.644;2022-10-30T01:16:45;15.57;;;6.70;;
7128;SDS011;3606;52.930;8.644;2022-10-30T01:24:57;13.23;;;6.20;;
7128;SDS011;3606;52.930;8.644;2022-10-30T01:30:29;10.07;;;6.67;;
7128;SDS011;3606;52.930;8.644;2022-10-30T01:36:02;10.67;;;6.00;;
7128;SDS011;3606;52.930;8.644;2022-10-30T01:38:32;12.00;;;6.77;;
7128;SDS011;3606;52.930;8.644;2022-10-30T01:41:03;12.50;;;6.33;;
7128;SDS011;3606;52.930;8.644;2022-10-30T01:43:29;9.53;;;6.47;;
7128;SDS011;3606;52.930;8.644;2022-10-30T01:48:31;9.37;;;6.17;;
7128;SDS011;3606;52.930;8.644;2022-10-30T01:51:14;12.13;;;6.70;;
7128;SDS011;3606;52.930;8.644;2022-10-30T01:53:52;11.23;;;6.60;;
7128;SDS011;3606;52.930;8.644;2022-10-30T01:59:31;11.10;;;6.50;;
7128;SDS011;3606;52.930;8.644;2022-10-30T02:02:08;12.93;;;6.53;;
7128;SDS011;3606;52.930;8.644;2022-10-30T02:04:34;17.33;;;6.33;;
7128;SDS011;3606;52.930;8.644;2022-10-30T02:07:00;8.93;;;6.03;;
7128;SDS011;3606;52.930;8.644;2022-10-30T02:09:26;13.37;;;6.50;;
7128;SDS011;3606;52.930;8.644;2022-10-30T02:11:52;14.83;;;6.60;;
7128;SDS011;3606;52.930;8.644;2022-10-30T02:14:20;13.57;;;6.50;;
7128;SDS011;3606;52.930;8.644;2022-10-30T02:16:50;12.83;;;5.87;;
7128;SDS011;3606;52.930;8.644;2022-10-30T02:19:17;11.87;;;6.27;;
7128;SDS011;3606;52.930;8.644;2022-10-30T02:21:43;10.10;;;6.03;;
7128;SDS011;3606;52.930;8.644;2022-10-30T02:24:09;9.83;;;6.43;;
7128;SDS011;3606;52.930;8.644;2022-10-30T02:26:34;15.40;;;7.13;;
7128;SDS011;3606;52.930;8.644;2022-10-30T02:29:00;16.83;;;6.90;;
7128;SDS011;3606;52.930;8.644;2022-10-30T02:31:25;12.97;;;6.37;;
7128;SDS011;3606;52.930;8.644;2022-10-30T02:33:51;12.70;;;6.40;;
7128;SDS011;3606;52.930;8.644;2022-10-30T02:36:16;10.23;;;6.27;;
7128;SDS011;3606;52.930;8.644;2022-10-30T02:38:43;11.30;;;6.33;;
7128;SDS011;3606;52.930;8.644;2022-10-30T02:41:09;10.03;;;6.37;;
7128;SDS011;3606;52.930;8.644;2022-10-30T02:43:35;11.13;;;6.43;;
7128;SDS011;3606;52.930;8.644;2022-10-30T02:46:01;13.63;;;6.60;;
7128;SDS011;3606;52.930;8.644;2022-10-30T02:48:28;12.00;;;6.90;;
7128;SDS011;3606;52.930;8.644;2022-10-30T02:50:58;10.50;;;5.97;;
7128;SDS011;3606;52.930;8.644;2022-10-30T02:53:25;14.70;;;6.17;;
7128;SDS011;3606;52.930;8.644;2022-10-30T02:55:51;13.13;;;6.80;;
7128;SDS011;3606;52.930;8.644;2022-10-30T02:58:16;11.17;;;6.40;;
7128;SDS011;3606;52.930;8.644;2022-10-30T03:00:42;12.30;;;6.60;;
7128;SDS011;3606;52.930;8.644;2022-10-30T03:03:07;11.33;;;6.30;;
7128;SDS011;3606;52.930;8.644;2022-10-30T03:05:33;11.70;;;6.07;;
7128;SDS011;3606;52.930;8.644;2022-10-30T03:07:58;12.27;;;5.70;;
7128;SDS011;3606;52.930;8.644;2022-10-30T03:10:24;12.33;;;5.73;;
7128;SDS011;3606;52.930;8.644;2022-10-30T03:12:50;11.77;;;6.23;;
7128;SDS011;3606;52.930;8.644;2022-10-30T03:15:15;8.10;;;5.80;;
7128;SDS011;3606;52.930;8.644;2022-10-30T03:17:41;11.77;;;6.53;;
7128;SDS011;3606;52.930;8.644;2022-10-30T03:20:06;10.70;;;5.77;;
7128;SDS011;3606;52.930;8.644;2022-10-30T03:22:32;11.30;;;6.10;;
7128;SDS011;3606;52.930;8.644;2022-10-30T03:24:58;11.83;;;6.53;;
7128;SDS011;3606;52.930;8.644;2022-10-30T03:27:23;12.87;;;6.40;;
7128;SDS011;3606;52.930;8.644;2022-10-30T03:29:49;12.60;;;6.23;;
7128;SDS011;3606;52.930;8.644;2022-10-30T03:32:14;17.83;;;6.47;;
7128;SDS011;3606;52.930;8.644;2022-10-30T03:34:40;12.73;;;6.37;;
7128;SDS011;3606;52.930;8.644;2022-10-30T03:37:06;10.07;;;6.13;;
7128;SDS011;3606;52.930;8.644;2022-10-30T03:39:31;11.43;;;6.23;;
7128;SDS011;3606;52.930;8.644;2022-10-30T03:41:57;14.60;;;6.07;;
7128;SDS011;3606;52.930;8.644;2022-10-30T03:44:22;12.00;;;5.93;;
7128;SDS011;3606;52.930;8.644;2022-10-30T03:46:48;9.20;;;6.00;;
7128;SDS011;3606;52.930;8.644;2022-10-30T03:49:13;14.23;;;6.40;;
7128;SDS011;3606;52.930;8.644;2022-10-30T03:51:39;15.43;;;7.10;;
7128;SDS011;3606;52.930;8.644;2022-10-30T03:54:04;14.33;;;6.60;;
7128;SDS011;3606;52.930;8.644;2022-10-30T03:56:30;10.47;;;6.00;;
7128;SDS011;3606;52.930;8.644;2022-10-30T03:58:56;10.00;;;5.77;;
7128;SDS011;3606;52.930;8.644;2022-10-30T04:01:21;14.83;;;6.10;;
7128;SDS011;3606;52.930;8.644;2022-10-30T04:03:47;13.23;;;6.40;;
7128;SDS011;3606;52.930;8.644;2022-10-30T04:06:12;11.07;;;5.57;;
7128;SDS011;3606;52.930;8.644;2022-10-30T04:08:38;10.73;;;5.70;;
7128;SDS011;3606;52.930;8.644;2022-10-30T04:11:03;13.60;;;6.80;;
7128;SDS011;3606;52.930;8.644;2022-10-30T04:13:29;9.37;;;5.97;;
7128;SDS011;3606;52.930;8.644;2022-10-30T04:15:55;9.33;;;6.60;;
7128;SDS011;3606;52.930;8.644;2022-10-30T04:18:20;15.20;;;6.43;;
7128;SDS011;3606;52.930;8.644;2022-10-30T04:20:46;9.63;;;6.00;;
7128;SDS011;3606;52.930;8.644;2022-10-30T04:23:13;11.27;;;6.33;;
7128;SDS011;3606;52.930;8.644;2022-10-30T04:25:40;13.40;;;6.83;;
7128;SDS011;3606;52.930;8.644;2022-10-30T04:28:06;17.27;;;7.07;;
7128;SDS011;3606;52.930;8.644;2022-10-30T04:30:31;9.27;;;5.97;;
7128;SDS011;3606;52.930;8.644;2022-10-30T04:32:59;12.20;;;5.93;;
7128;SDS011;3606;52.930;8.644;2022-10-30T04:35:29;12.13;;;5.83;;
7128;SDS011;3606;52.930;8.644;2022-10-30T04:37:57;12.80;;;6.23;;
7128;SDS011;3606;52.930;8.644;2022-10-30T04:40:25;10.73;;;6.83;;
7128;SDS011;3606;52.930;8.644;2022-10-30T04:42:56;13.80;;;5.87;;
7128;SDS011;3606;52.930;8.644;2022-10-30T04:45:22;12.43;;;6.47;;
7128;SDS011;3606;52.930;8.644;2022-10-30T04:47:48;11.50;;;6.13;;
7128;SDS011;3606;52.930;8.644;2022-10-30T04:50:13;11.70;;;7.20;;
7128;SDS011;3606;52.930;8.644;2022-10-30T04:52:39;11.00;;;6.47;;
7128;SDS011;3606;52.930;8.644;2022-10-30T04:55:06;12.73;;;7.03;;
7128;SDS011;3606;52.930;8.644;2022-10-30T04:57:32;13.47;;;6.73;;
7128;SDS011;3606;52.930;8.644;2022-10-30T04:59:59;14.03;;;6.70;;
7128;SDS011;3606;52.930;8.644;2022-10-30T05:02:24;13.10;;;7.40;;
7128;SDS011;3606;52.930;8.644;2022-10-30T05:04:50;13.37;;;6.80;;
7128;SDS011;3606;52.930;8.644;2022-10-30T05:07:16;11.40;;;6.90;;
7128;SDS011;3606;52.930;8.644;2022-10-30T05:09:42;12.63;;;7.37;;
7128;SDS011;3606;52.930;8.644;2022-10-30T05:12:09;15.97;;;7.50;;
7128;SDS011;3606;52.930;8.644;2022-10-30T05:14:34;10.43;;;6.50;;
7128;SDS011;3606;52.930;8.644;2022-10-30T05:17:00;14.73;;;7.47;;
7128;SDS011;3606;52.930;8.644;2022-10-30T05:19:26;12.43;;;6.90;;
7128;SDS011;3606;52.930;8.644;2022-10-30T05:21:52;15.37;;;7.10;;
7128;SDS011;3606;52.930;8.644;2022-10-30T05:24:17;10.57;;;6.47;;
7128;SDS011;3606;52.930;8.644;2022-10-30T05:26:43;9.60;;;6.10;;
7128;SDS011;3606;52.930;8.644;2022-10-30T05:29:09;10.50;;;6.37;;
7128;SDS011;3606;52.930;8.644;2022-10-30T05:31:34;13.23;;;7.00;;
7128;SDS011;3606;52.930;8.644;2022-10-30T05:34:00;19.43;;;7.17;;
7128;SDS011;3606;52.930;8.644;2022-10-30T05:36:25;13.50;;;7.20;;
7128;SDS011;3606;52.930;8.644;2022-10-30T05:38:51;10.80;;;6.80;;
7128;SDS011;3606;52.930;8.644;2022-10-30T05:41:17;12.43;;;6.73;;
7128;SDS011;3606;52.930;8.644;2022-10-30T05:43:42;12.50;;;7.07;;
7128;SDS011;3606;52.930;8.644;2022-10-30T05:46:08;11.47;;;7.00;;
7128;SDS011;3606;52.930;8.644;2022-10-30T05:48:34;11.50;;;7.03;;
7128;SDS011;3606;52.930;8.644;2022-10-30T05:50:59;10.97;;;6.93;;
7128;SDS011;3606;52.930;8.644;2022-10-30T05:53:25;12.30;;;7.40;;
7128;SDS011;3606;52.930;8.644;2022-10-30T05:55:51;11.73;;;7.33;;
7128;SDS011;3606;52.930;8.644;2022-10-30T05:58:21;10.63;;;7.23;;
7128;SDS011;3606;52.930;8.644;2022-10-30T06:00:46;13.03;;;7.33;;
7128;SDS011;3606;52.930;8.644;2022-10-30T06:03:12;11.80;;;7.00;;
7128;SDS011;3606;52.930;8.644;2022-10-30T06:05:38;12.57;;;7.30;;
7128;SDS011;3606;52.930;8.644;2022-10-30T06:08:04;11.83;;;7.87;;
7128;SDS011;3606;52.930;8.644;2022-10-30T06:10:31;14.53;;;7.37;;
7128;SDS011;3606;52.930;8.644;2022-10-30T06:13:01;12.73;;;6.77;;
7128;SDS011;3606;52.930;8.644;2022-10-30T06:15:28;12.03;;;6.87;;
7128;SDS011;3606;52.930;8.644;2022-10-30T06:17:54;12.20;;;7.07;;
7128;SDS011;3606;52.930;8.644;2022-10-30T06:20:23;13.53;;;7.00;;
7128;SDS011;3606;52.930;8.644;2022-10-30T06:23:00;11.57;;;7.13;;
7128;SDS011;3606;52.930;8.644;2022-10-30T06:25:29;13.07;;;8.10;;
7128;SDS011;3606;52.930;8.644;2022-10-30T06:27:57;15.50;;;7.87;;
7128;SDS011;3606;52.930;8.644;2022-10-30T06:30:23;11.27;;;6.80;;
7128;SDS011;3606;52.930;8.644;2022-10-30T06:32:54;14.23;;;8.20;;
7128;SDS011;3606;52.930;8.644;2022-10-30T06:35:24;14.23;;;7.40;;
7128;SDS011;3606;52.930;8.644;2022-10-30T06:37:49;10.47;;;7.17;;
7128;SDS011;3606;52.930;8.644;2022-10-30T06:40:17;14.27;;;7.37;;
7128;SDS011;3606;52.930;8.644;2022-10-30T06:42:43;9.90;;;6.77;;
7128;SDS011;3606;52.930;8.644;2022-10-30T06:45:09;15.60;;;7.10;;
7128;SDS011;3606;52.930;8.644;2022-10-30T06:47:36;9.80;;;6.07;;
7128;SDS011;3606;52.930;8.644;2022-10-30T06:50:02;10.83;;;6.43;;
7128;SDS011;3606;52.930;8.644;2022-10-30T06:52:29;9.67;;;6.53;;
7128;SDS011;3606;52.930;8.644;2022-10-30T06:54:55;10.17;;;6.43;;
7128;SDS011;3606;52.930;8.644;2022-10-30T06:57:20;12.63;;;6.60;;
7128;SDS011;3606;52.930;8.644;2022-10-30T06:59:46;14.80;;;7.30;;
7128;SDS011;3606;52.930;8.644;2022-10-30T07:02:11;14.30;;;7.20;;
7128;SDS011;3606;52.930;8.644;2022-10-30T07:04:38;9.63;;;6.47;;
7128;SDS011;3606;52.930;8.644;2022-10-30T07:07:04;13.23;;;8.13;;
7128;SDS011;3606;52.930;8.644;2022-10-30T07:09:29;13.63;;;7.70;;
7128;SDS011;3606;52.930;8.644;2022-10-30T07:11:55;13.60;;;7.87;;
7128;SDS011;3606;52.930;8.644;2022-10-30T07:14:20;15.10;;;8.33;;
7128;SDS011;3606;52.930;8.644;2022-10-30T07:16:46;16.67;;;9.13;;
7128;SDS011;3606;52.930;8.644;2022-10-30T07:19:12;15.00;;;9.23;;
7128;SDS011;3606;52.930;8.644;2022-10-30T07:21:37;13.83;;;8.23;;
7128;SDS011;3606;52.930;8.644;2022-10-30T07:24:03;14.63;;;8.23;;
7128;SDS011;3606;52.930;8.644;2022-10-30T07:26:29;17.63;;;8.17;;
7128;SDS011;3606;52.930;8.644;2022-10-30T07:28:55;14.17;;;8.00;;
7128;SDS011;3606;52.930;8.644;2022-10-30T07:31:20;11.37;;;7.87;;
7128;SDS011;3606;52.930;8.644;2022-10-30T07:33:46;14.17;;;7.63;;
7128;SDS011;3606;52.930;8.644;2022-10-30T07:36:11;11.23;;;7.57;;
7128;SDS011;3606;52.930;8.644;2022-10-30T07:38:38;14.77;;;7.83;;
7128;SDS011;3606;52.930;8.644;2022-10-30T07:41:04;10.73;;;6.90;;
7128;SDS011;3606;52.930;8.644;2022-10-30T07:43:30;10.40;;;6.53;;
7128;SDS011;3606;52.930;8.644;2022-10-30T07:45:55;9.37;;;6.63;;
7128;SDS011;3606;52.930;8.644;2022-10-30T07:48:21;10.07;;;6.27;;
7128;SDS011;3606;52.930;8.644;2022-10-30T07:50:47;11.07;;;6.53;;
7128;SDS011;3606;52.930;8.644;2022-10-30T07:53:12;12.43;;;7.10;;
7128;SDS011;3606;52.930;8.644;2022-10-30T07:55:38;10.60;;;6.07;;
7128;SDS011;3606;52.930;8.644;2022-10-30T07:58:03;10.30;;;5.80;;
7128;SDS011;3606;52.930;8.644;2022-10-30T08:00:29;10.03;;;6.37;;
7128;SDS011;3606;52.930;8.644;2022-10-30T08:02:55;10.10;;;6.53;;
7128;SDS011;3606;52.930;8.644;2022-10-30T08:05:21;11.23;;;5.80;;
7128;SDS011;3606;52.930;8.644;2022-10-30T08:07:47;17.73;;;6.90;;
7128;SDS011;3606;52.930;8.644;2022-10-30T08:10:12;12.80;;;6.13;;
7128;SDS011;3606;52.930;8.644;2022-10-30T08:12:38;13.20;;;6.87;;
7128;SDS011;3606;52.930;8.644;2022-10-30T08:15:06;10.53;;;6.23;;
7128;SDS011;3606;52.930;8.644;2022-10-30T08:17:32;8.87;;;6.03;;
7128;SDS011;3606;52.930;8.644;2022-10-30T08:19:57;13.50;;;6.27;;
7128;SDS011;3606;52.930;8.644;2022-10-30T08:22:23;11.73;;;6.30;;
7128;SDS011;3606;52.930;8.644;2022-10-30T08:24:49;11.90;;;6.13;;
7128;SDS011;3606;52.930;8.644;2022-10-30T08:27:15;9.82;;;6.25;;
7128;SDS011;3606;52.930;8.644;2022-10-30T08:29:40;13.40;;;6.55;;
7128;SDS011;3606;52.930;8.644;2022-10-30T08:32:06;13.65;;;6.10;;
7128;SDS011;3606;52.930;8.644;2022-10-30T08:34:31;11.65;;;5.90;;
7128;SDS011;3606;52.930;8.644;2022-10-30T08:36:58;11.32;;;5.72;;
7128;SDS011;3606;52.930;8.644;2022-10-30T08:39:24;14.95;;;6.70;;
7128;SDS011;3606;52.930;8.644;2022-10-30T08:41:50;14.70;;;7.07;;
7128;SDS011;3606;52.930;8.644;2022-10-30T08:44:15;10.45;;;6.45;;
7128;SDS011;3606;52.930;8.644;2022-10-30T08:46:41;9.80;;;6.03;;
7128;SDS011;3606;52.930;8.644;2022-10-30T08:49:07;11.73;;;6.50;;
7128;SDS011;3606;52.930;8.644;2022-10-30T08:51:33;11.85;;;6.85;;
7128;SDS011;3606;52.930;8.644;2022-10-30T08:53:59;10.88;;;6.70;;
7128;SDS011;3606;52.930;8.644;2022-10-30T08:56:25;11.38;;;6.45;;
7128;SDS011;3606;52.930;8.644;2022-10-30T08:58:51;20.08;;;6.95;;
7128;SDS011;3606;52.930;8.644;2022-10-30T09:01:16;12.25;;;6.47;;
7128;SDS011;3606;52.930;8.644;2022-10-30T09:03:43;14.20;;;7.20;;
7128;SDS011;3606;52.930;8.644;2022-10-30T09:06:09;10.15;;;6.32;;
7128;SDS011;3606;52.930;8.644;2022-10-30T09:08:35;13.18;;;7.40;;
7128;SDS011;3606;52.930;8.644;2022-10-30T09:11:01;9.98;;;5.95;;
7128;SDS011;3606;52.930;8.644;2022-10-30T09:13:26;11.70;;;7.13;;
7128;SDS011;3606;52.930;8.644;2022-10-30T09:15:52;15.90;;;6.65;;
7128;SDS011;3606;52.930;8.644;2022-10-30T09:18:18;16.05;;;7.47;;
7128;SDS011;3606;52.930;8.644;2022-10-30T09:20:44;11.07;;;6.40;;
7128;SDS011;3606;52.930;8.644;2022-10-30T09:23:12;10.18;;;6.60;;
7128;SDS011;3606;52.930;8.644;2022-10-30T09:25:37;9.50;;;6.03;;
7128;SDS011;3606;52.930;8.644;2022-10-30T09:28:03;14.65;;;6.97;;
7128;SDS011;3606;52.930;8.644;2022-10-30T09:30:29;11.95;;;6.25;;
7128;SDS011;3606;52.930;8.644;2022-10-30T09:32:55;12.00;;;6.70;;
7128;SDS011;3606;52.930;8.644;2022-10-30T09:35:21;14.80;;;6.95;;
7128;SDS011;3606;52.930;8.644;2022-10-30T09:37:47;14.65;;;6.70;;
7128;SDS011;3606;52.930;8.644;2022-10-30T09:43:27;14.25;;;7.10;;
7128;SDS011;3606;52.930;8.644;2022-10-30T09:57:33;9.82;;;6.90;;
7128;SDS011;3606;52.930;8.644;2022-10-30T10:00:04;12.63;;;6.93;;
7128;SDS011;3606;52.930;8.644;2022-10-30T10:02:50;10.60;;;6.88;;
7128;SDS011;3606;52.930;8.644;2022-10-30T10:05:23;12.75;;;6.78;;
7128;SDS011;3606;52.930;8.644;2022-10-30T10:07:54;12.23;;;6.50;;
7128;SDS011;3606;52.930;8.644;2022-10-30T10:12:54;15.25;;;7.53;;
7128;SDS011;3606;52.930;8.644;2022-10-30T10:15:41;18.38;;;6.97;;
7128;SDS011;3606;52.930;8.644;2022-10-30T10:18:15;15.95;;;7.15;;
7128;SDS011;3606;52.930;8.644;2022-10-30T10:20:45;16.08;;;6.85;;
7128;SDS011;3606;52.930;8.644;2022-10-30T10:23:31;11.15;;;6.03;;
7128;SDS011;3606;52.930;8.644;2022-10-30T10:26:17;12.63;;;5.75;;
7128;SDS011;3606;52.930;8.644;2022-10-30T10:40:03;16.30;;;6.00;;
7128;SDS011;3606;52.930;8.644;2022-10-30T10:42:54;12.13;;;5.82;;
7128;SDS011;3606;52.930;8.644;2022-10-30T10:51:19;14.77;;;6.28;;
7128;SDS011;3606;52.930;8.644;2022-10-30T10:53:56;9.57;;;6.30;;
7128;SDS011;3606;52.930;8.644;2022-10-30T10:56:40;11.05;;;5.50;;
7128;SDS011;3606;52.930;8.644;2022-10-30T10:59:13;13.20;;;6.82;;
7128;SDS011;3606;52.930;8.644;2022-10-30T11:01:49;11.88;;;6.43;;
7128;SDS011;3606;52.930;8.644;2022-10-30T11:04:35;15.63;;;6.55;;
7128;SDS011;3606;52.930;8.644;2022-10-30T11:07:14;11.20;;;6.32;;
7128;SDS011;3606;52.930;8.644;2022-10-30T11:09:50;8.68;;;6.00;;
7128;SDS011;3606;52.930;8.644;2022-10-30T11:12:18;11.77;;;6.22;;
7128;SDS011;3606;52.930;8.644;2022-10-30T11:14:51;13.85;;;6.55;;
7128;SDS011;3606;52.930;8.644;2022-10-30T11:19:57;14.32;;;6.43;;
7128;SDS011;3606;52.930;8.644;2022-10-30T11:22:40;11.52;;;5.88;;
7128;SDS011;3606;52.930;8.644;2022-10-30T11:25:17;12.32;;;6.20;;
7128;SDS011;3606;52.930;8.644;2022-10-30T11:27:58;12.90;;;6.65;;
7128;SDS011;3606;52.930;8.644;2022-10-30T11:30:25;12.98;;;6.28;;
7128;SDS011;3606;52.930;8.644;2022-10-30T11:32:53;13.60;;;6.47;;
7128;SDS011;3606;52.930;8.644;2022-10-30T11:35:20;11.40;;;5.70;;
7128;SDS011;3606;52.930;8.644;2022-10-30T11:37:50;14.55;;;6.50;;
7128;SDS011;3606;52.930;8.644;2022-10-30T11:40:18;8.77;;;5.70;;
7128;SDS011;3606;52.930;8.644;2022-10-30T11:42:53;13.82;;;5.88;;
7128;SDS011;3606;52.930;8.644;2022-10-30T11:45:27;15.95;;;7.13;;
7128;SDS011;3606;52.930;8.644;2022-10-30T11:47:56;9.77;;;5.85;;
7128;SDS011;3606;52.930;8.644;2022-10-30T11:50:27;10.88;;;5.88;;
7128;SDS011;3606;52.930;8.644;2022-10-30T11:52:58;11.48;;;6.25;;
7128;SDS011;3606;52.930;8.644;2022-10-30T11:55:36;13.13;;;6.72;;
7128;SDS011;3606;52.930;8.644;2022-10-30T11:58:05;15.70;;;6.50;;
7128;SDS011;3606;52.930;8.644;2022-10-30T12:00:34;8.32;;;5.65;;
7128;SDS011;3606;52.930;8.644;2022-10-30T12:03:00;15.63;;;6.60;;
7128;SDS011;3606;52.930;8.644;2022-10-30T12:05:31;14.80;;;6.38;;
7128;SDS011;3606;52.930;8.644;2022-10-30T12:10:30;10.15;;;6.40;;
7128;SDS011;3606;52.930;8.644;2022-10-30T12:12:56;14.32;;;7.10;;
7128;SDS011;3606;52.930;8.644;2022-10-30T12:15:29;14.30;;;6.15;;
7128;SDS011;3606;52.930;8.644;2022-10-30T12:18:02;12.10;;;5.55;;
7128;SDS011;3606;52.930;8.644;2022-10-30T12:20:30;12.98;;;7.03;;
7128;SDS011;3606;52.930;8.644;2022-10-30T12:22:56;16.15;;;6.57;;
7128;SDS011;3606;52.930;8.644;2022-10-30T12:25:23;14.52;;;6.32;;
7128;SDS011;3606;52.930;8.644;2022-10-30T12:28:16;13.65;;;6.03;;
7128;SDS011;3606;52.930;8.644;2022-10-30T12:30:55;12.40;;;7.13;;
7128;SDS011;3606;52.930;8.644;2022-10-30T12:33:41;16.15;;;7.10;;
7128;SDS011;3606;52.930;8.644;2022-10-30T12:36:13;13.25;;;6.18;;
7128;SDS011;3606;52.930;8.644;2022-10-30T12:38:51;11.50;;;5.90;;
7128;SDS011;3606;52.930;8.644;2022-10-30T12:41:34;8.88;;;5.72;;
7128;SDS011;3606;52.930;8.644;2022-10-30T12:47:06;12.98;;;6.20;;
7128;SDS011;3606;52.930;8.644;2022-10-30T12:49:40;12.73;;;5.53;;
7128;SDS011;3606;52.930;8.644;2022-10-30T12:54:38;11.27;;;5.60;;
7128;SDS011;3606;52.930;8.644;2022-10-30T12:57:17;13.23;;;6.18;;
7128;SDS011;3606;52.930;8.644;2022-10-30T13:00:03;11.50;;;5.78;;
7128;SDS011;3606;52.930;8.644;2022-10-30T13:02:54;11.73;;;5.95;;
7128;SDS011;3606;52.930;8.644;2022-10-30T13:05:34;12.00;;;6.00;;
7128;SDS011;3606;52.930;8.644;2022-10-30T13:10:42;11.93;;;6.47;;
7128;SDS011;3606;52.930;8.644;2022-10-30T13:13:09;12.32;;;7.03;;
7128;SDS011;3606;52.930;8.644;2022-10-30T13:15:47;10.45;;;6.13;;
7128;SDS011;3606;52.930;8.644;2022-10-30T13:18:16;13.00;;;5.82;;
7128;SDS011;3606;52.930;8.644;2022-10-30T13:20:58;12.02;;;5.32;;
7128;SDS011;3606;52.930;8.644;2022-10-30T13:37:26;11.48;;;5.72;;
7128;SDS011;3606;52.930;8.644;2022-10-30T13:40:22;24.80;;;7.03;;
7128;SDS011;3606;52.930;8.644;2022-10-30T13:43:17;15.48;;;6.35;;
7128;SDS011;3606;52.930;8.644;2022-10-30T13:54:24;14.52;;;6.43;;
7128;SDS011;3606;52.930;8.644;2022-10-30T13:57:28;12.27;;;5.53;;
7128;SDS011;3606;52.930;8.644;2022-10-30T14:00:10;11.73;;;5.75;;
7128;SDS011;3606;52.930;8.644;2022-10-30T14:10:53;10.77;;;6.80;;
7128;SDS011;3606;52.930;8.644;2022-10-30T14:15:53;12.70;;;6.23;;
7128;SDS011;3606;52.930;8.644;2022-10-30T14:18:24;15.70;;;7.80;;
7128;SDS011;3606;52.930;8.644;2022-10-30T14:20:52;17.07;;;6.63;;
7128;SDS011;3606;52.930;8.644;2022-10-30T14:23:20;15.03;;;7.17;;
7128;SDS011;3606;52.930;8.644;2022-10-30T14:28:26;12.70;;;5.37;;
7128;SDS011;3606;52.930;8.644;2022-10-30T14:33:38;10.20;;;6.07;;
7128;SDS011;3606;52.930;8.644;2022-10-30T14:36:22;13.27;;;5.83;;
7128;SDS011;3606;52.930;8.644;2022-10-30T14:38:58;17.33;;;6.57;;
7128;SDS011;3606;52.930;8.644;2022-10-30T15:08:29;14.60;;;6.63;;
7128;SDS011;3606;52.930;8.644;2022-10-30T15:11:18;11.43;;;5.93;;
7128;SDS011;3606;52.930;8.644;2022-10-30T15:13:51;13.13;;;5.77;;
7128;SDS011;3606;52.930;8.644;2022-10-30T15:16:22;14.87;;;6.10;;
7128;SDS011;3606;52.930;8.644;2022-10-30T15:18:58;11.40;;;5.77;;
7128;SDS011;3606;52.930;8.644;2022-10-30T15:21:29;11.37;;;5.97;;
7128;SDS011;3606;52.930;8.644;2022-10-30T15:23:58;14.13;;;6.33;;
7128;SDS011;3606;52.930;8.644;2022-10-30T15:26:27;13.17;;;6.60;;
7128;SDS011;3606;52.930;8.644;2022-10-30T15:29:02;10.83;;;5.87;;
7128;SDS011;3606;52.930;8.644;2022-10-30T15:31:29;10.87;;;6.23;;
7128;SDS011;3606;52.930;8.644;2022-10-30T15:33:55;10.40;;;5.90;;
7128;SDS011;3606;52.930;8.644;2022-10-30T15:36:25;13.10;;;6.50;;
7128;SDS011;3606;52.930;8.644;2022-10-30T15:39:05;14.20;;;6.40;;
7128;SDS011;3606;52.930;8.644;2022-10-30T15:41:31;11.93;;;6.53;;
7128;SDS011;3606;52.930;8.644;2022-10-30T15:44:02;10.47;;;6.03;;
7128;SDS011;3606;52.930;8.644;2022-10-30T15:46:28;8.10;;;6.20;;
7128;SDS011;3606;52.930;8.644;2022-10-30T15:48:54;12.57;;;6.67;;
7128;SDS011;3606;52.930;8.644;2022-10-30T15:51:21;10.30;;;6.37;;
7128;SDS011;3606;52.930;8.644;2022-10-30T15:54:09;20.57;;;7.50;;
7128;SDS011;3606;52.930;8.644;2022-10-30T15:56:36;16.57;;;7.40;;
7128;SDS011;3606;52.930;8.644;2022-10-30T15:59:13;10.10;;;7.17;;
7128;SDS011;3606;52.930;8.644;2022-10-30T16:01:47;13.00;;;7.10;;
7128;SDS011;3606;52.930;8.644;2022-10-30T16:04:46;11.90;;;7.93;;
7128;SDS011;3606;52.930;8.644;2022-10-30T16:07:24;15.07;;;7.93;;
7128;SDS011;3606;52.930;8.644;2022-10-30T16:09:54;17.00;;;8.33;;
7128;SDS011;3606;52.930;8.644;2022-10-30T16:12:24;16.07;;;7.83;;
7128;SDS011;3606;52.930;8.644;2022-10-30T16:14:52;14.83;;;7.10;;
7128;SDS011;3606;52.930;8.644;2022-10-30T16:17:18;13.27;;;7.97;;
7128;SDS011;3606;52.930;8.644;2022-10-30T16:19:45;15.50;;;7.17;;
7128;SDS011;3606;52.930;8.644;2022-10-30T16:22:13;13.53;;;7.60;;
7128;SDS011;3606;52.930;8.644;2022-10-30T16:24:48;13.87;;;7.93;;
7128;SDS011;3606;52.930;8.644;2022-10-30T16:27:15;12.13;;;8.20;;
7128;SDS011;3606;52.930;8.644;2022-10-30T16:29:43;14.53;;;7.60;;
7128;SDS011;3606;52.930;8.644;2022-10-30T16:32:16;11.90;;;7.67;;
7128;SDS011;3606;52.930;8.644;2022-10-30T16:34:44;13.03;;;8.27;;
7128;SDS011;3606;52.930;8.644;2022-10-30T16:37:18;16.87;;;8.23;;
7128;SDS011;3606;52.930;8.644;2022-10-30T16:39:47;15.40;;;8.43;;
7128;SDS011;3606;52.930;8.644;2022-10-30T16:42:21;15.40;;;9.63;;
7128;SDS011;3606;52.930;8.644;2022-10-30T16:44:48;14.60;;;8.77;;
7128;SDS011;3606;52.930;8.644;2022-10-30T16:49:48;15.77;;;8.67;;
7128;SDS011;3606;52.930;8.644;2022-10-30T16:52:24;18.73;;;8.13;;
7128;SDS011;3606;52.930;8.644;2022-10-30T16:54:58;14.87;;;8.77;;
7128;SDS011;3606;52.930;8.644;2022-10-30T16:57:27;16.47;;;8.10;;
7128;SDS011;3606;52.930;8.644;2022-10-30T16:59:56;9.70;;;8.23;;
7128;SDS011;3606;52.930;8.644;2022-10-30T17:02:25;14.70;;;8.37;;
7128;SDS011;3606;52.930;8.644;2022-10-30T17:05:00;13.73;;;8.60;;
7128;SDS011;3606;52.930;8.644;2022-10-30T17:07:59;18.90;;;10.03;;
7128;SDS011;3606;52.930;8.644;2022-10-30T17:10:29;15.37;;;10.80;;
7128;SDS011;3606;52.930;8.644;2022-10-30T17:18:53;19.30;;;10.53;;
7128;SDS011;3606;52.930;8.644;2022-10-30T17:21:21;19.17;;;10.83;;
7128;SDS011;3606;52.930;8.644;2022-10-30T17:24:00;15.47;;;10.03;;
7128;SDS011;3606;52.930;8.644;2022-10-30T17:26:26;16.90;;;10.43;;
7128;SDS011;3606;52.930;8.644;2022-10-30T17:28:55;16.43;;;10.27;;
7128;SDS011;3606;52.930;8.644;2022-10-30T17:31:23;20.00;;;9.50;;
7128;SDS011;3606;52.930;8.644;2022-10-30T17:36:44;19.57;;;10.40;;